WHTO2: S Canadian Riv, Whitefield, OK

Data processed at Tue Jan 16 2018 23:58


All information presented herein is the property of the government of the United States of America and may be revised or deleted at any time without prior notice.
Dissemination of this information without the expressed written consent of the Public Affairs Office, Tulsa District U.S. Army Corps of Engineers is strictly prohibited.
These data are gathered electronically and, as presented, have not undergone any form of quality control. These data are not guaranteed to be valid or correct.
Go to home page.
Go to station list.

Upstream stations:

Downstream station:
Previous Day
Next Day
Current Day
    
SHEF ID:       WHTO2     Canadian River near Whitefield,
STATION TYPE:  

               PRECIP     STAGE  RIV-FLOW  BAT-LOAD
                   in        ft       cfs      volt
              Ccp-Rev   Ccp-Rev   Ccp-Rev   Ccp-Rev
(US/Central)
01/14 00:00      0.00      5.12      6687     12.65
01/14 01:00      0.00      4.65      5267     12.65
01/14 02:00      0.00      4.19      4076     12.65
01/14 03:00      0.00      3.76      3109     12.57
01/14 04:00      0.00      3.40      2407     12.57
01/14 05:00      0.00      3.09      1840     12.57
01/14 06:00      0.00      2.85      1412     12.57
01/14 07:00      0.00      2.65      1108     12.41
01/14 08:00      0.00      2.51       904     12.49
01/14 09:00      0.00      2.39       753     12.73
01/14 10:00      0.00      2.58      1002     13.29
01/14 11:00      0.00      4.65      5267     13.84
01/14 12:00      0.00      5.52      7994     14.16
01/14 13:00      0.00      5.44      7726     14.16
01/14 14:00      0.00      5.06      6494     14.56
01/14 15:00      0.00      4.59      5101     14.24
01/14 16:00      0.00      4.15      3981     14.24
01/14 17:00      0.00      3.73      3046     14.00
01/14 18:00      0.00      3.36      2335     13.60
01/14 19:00      0.00      3.06      1788     13.29
01/14 20:00      0.00      2.82      1363     12.97
01/14 21:00      0.00      3.14      1927     12.73
01/14 22:00      0.00      4.45      4725     12.65
01/14 23:00      0.00      4.68      5351     12.65